»·PEaware :: SWA549 KSNA-KOAK

SWA549 :: KSNA-KOAK

FLIGHT INFORMATION

Flight Status: Arrived
Operator:
Southwest Airlines
More flights by this operator :: More flights under this callsign
Pilot: Ben F. (2808)
Aircraft: BOEING 737-700
(B737)
More flights by this aircraft type
Origin: KSNA John Wayne-Orange Co
United States
Destination: KOAK Metro Oakland Intl
United States
More flights between these airports :: More routes between these airports
Route: HHERO3 OROSZ COREZ RGOOD EMZOH3
File this flight plan on PilotEdge
Remarks:
Altitude:
(Current/Filed)
36,000ft
Speed:
(Current/Filed)
459kts
Departed: 26-Mar-20 05:32 PM
Arrived: 26-Mar-20 06:32 PM
Distance/Time
Traveled:
321nm/1:00
Distance/Time
To Go:
Arrived

Flight Plot

Page will automatically refresh every two minutes.

Flight plan parsing failed; only flown route is shown


Map Options




Map Legend


Flown Route
Filed Route
Departure Airport
Arrival Airport
Navaid (VOR, NDB)
Fix

Horizontal Profiles

Position Reports

Time Latitude Longitude Heading Altitude Ground
Speed
26-Mar-20 17:04 33.675348 -117.864868 117 64ft 0kts
26-Mar-20 17:05 33.675348 -117.864868 117 64ft 0kts
26-Mar-20 17:06 33.675348 -117.864868 117 64ft 0kts
26-Mar-20 17:07 33.675348 -117.864868 117 64ft 0kts
26-Mar-20 17:09 33.675348 -117.864868 117 64ft 0kts
26-Mar-20 17:10 33.675348 -117.864868 117 64ft 0kts
26-Mar-20 17:11 33.675348 -117.864868 117 64ft 0kts
26-Mar-20 17:12 33.675348 -117.864868 117 64ft 0kts
26-Mar-20 17:13 33.675348 -117.864868 117 64ft 0kts
26-Mar-20 17:14 33.675348 -117.864868 117 64ft 0kts
26-Mar-20 17:15 33.675348 -117.864868 117 64ft 0kts
26-Mar-20 17:16 33.675348 -117.864868 117 64ft 0kts
26-Mar-20 17:17 33.675348 -117.864868 117 64ft 0kts
26-Mar-20 17:18 33.675348 -117.864868 117 64ft 0kts
26-Mar-20 17:19 33.675348 -117.864868 117 64ft 0kts
26-Mar-20 17:20 33.675348 -117.864868 117 64ft 0kts
26-Mar-20 17:21 33.675348 -117.864868 117 64ft 0kts
26-Mar-20 17:22 33.675348 -117.864868 117 64ft 0kts
26-Mar-20 17:23 33.675351 -117.864875 117 64ft 0kts
26-Mar-20 17:24 33.675409 -117.865659 27 64ft 2kts
26-Mar-20 17:25 33.675251 -117.865759 27 64ft 0kts
26-Mar-20 17:26 33.675251 -117.865759 27 64ft 0kts
26-Mar-20 17:26 33.677280 -117.864473 27 64ft 13kts
26-Mar-20 17:27 33.680469 -117.862787 321 64ft 3kts
26-Mar-20 17:29 33.680676 -117.863205 296 64ft 0kts
26-Mar-20 17:29 33.680676 -117.863206 296 64ft 0kts
26-Mar-20 17:30 33.681011 -117.864003 297 64ft 16kts
26-Mar-20 17:31 33.675259 -117.869143 207 64ft 108kts
26-Mar-20 17:33 33.627616 -117.889796 192 2001ft 196kts
26-Mar-20 17:33 33.575020 -117.900792 207 3917ft 249kts
26-Mar-20 17:34 33.521740 -117.955328 226 7143ft 259kts
26-Mar-20 17:35 33.471342 -118.020099 240 8213ft 271kts
26-Mar-20 17:36 33.432939 -118.099046 242 11385ft 295kts
26-Mar-20 17:37 33.418323 -118.198340 286 14053ft 325kts
26-Mar-20 17:38 33.442355 -118.303522 287 17017ft 338kts
26-Mar-20 17:39 33.485562 -118.405439 292 19179ft 346kts
26-Mar-20 17:40 33.553624 -118.491388 334 21883ft 415kts
26-Mar-20 17:41 33.676005 -118.477188 6 23835ft 479kts
26-Mar-20 17:42 33.802440 -118.458154 349 25699ft 480kts
26-Mar-20 17:43 33.938496 -118.459710 350 27519ft 497kts
26-Mar-20 17:44 34.069519 -118.492318 326 29155ft 474kts
26-Mar-20 17:45 34.191967 -118.556264 326 30547ft 485kts
26-Mar-20 17:46 34.316280 -118.619842 328 32270ft 483kts
26-Mar-20 17:47 34.434911 -118.689987 321 33978ft 467kts
26-Mar-20 17:48 34.547784 -118.768949 321 35322ft 467kts
26-Mar-20 17:49 34.660171 -118.847827 322 35990ft 467kts
26-Mar-20 17:50 34.772546 -118.926427 322 35997ft 466kts
26-Mar-20 17:51 34.884940 -119.005516 322 36001ft 465kts
26-Mar-20 17:52 34.996623 -119.084427 322 36013ft 465kts
26-Mar-20 17:53 35.108580 -119.163793 323 36025ft 464kts
26-Mar-20 17:54 35.220039 -119.243055 323 36030ft 464kts
26-Mar-20 17:55 35.331817 -119.322568 323 36028ft 463kts
26-Mar-20 17:56 35.442762 -119.402054 323 36032ft 462kts
26-Mar-20 17:57 35.553174 -119.482563 319 36050ft 458kts
26-Mar-20 17:58 35.651228 -119.580318 314 36055ft 453kts
26-Mar-20 17:59 35.748201 -119.679196 315 36059ft 453kts
26-Mar-20 18:00 35.845105 -119.778902 315 36068ft 452kts
26-Mar-20 18:01 35.939898 -119.879906 311 36070ft 449kts
26-Mar-20 18:02 36.029590 -119.987657 311 36071ft 449kts
26-Mar-20 18:03 36.119386 -120.094871 311 36071ft 449kts
26-Mar-20 18:04 36.209704 -120.202208 311 36072ft 449kts
26-Mar-20 18:05 36.299616 -120.309669 311 36073ft 449kts
26-Mar-20 18:06 36.389587 -120.417351 311 36076ft 449kts
26-Mar-20 18:07 36.479188 -120.525613 312 35267ft 450kts
26-Mar-20 18:08 36.570408 -120.633724 316 31908ft 455kts
26-Mar-20 18:09 36.663677 -120.735505 317 29261ft 437kts
26-Mar-20 18:10 36.753777 -120.835302 318 26663ft 426kts
26-Mar-20 18:11 36.840026 -120.931715 320 24568ft 402kts
26-Mar-20 18:12 36.921501 -121.021727 320 22313ft 381kts
26-Mar-20 18:13 36.998956 -121.107949 319 20137ft 366kts
26-Mar-20 18:14 37.073858 -121.191840 319 18022ft 354kts
26-Mar-20 18:15 37.146133 -121.273149 318 15850ft 346kts
26-Mar-20 18:16 37.215626 -121.353741 318 13761ft 334kts
26-Mar-20 18:17 37.282566 -121.431882 318 11699ft 322kts
26-Mar-20 18:18 37.346122 -121.506283 318 10074ft 293kts
26-Mar-20 18:19 37.401521 -121.570567 318 9330ft 269kts
26-Mar-20 18:20 37.454766 -121.638874 307 7871ft 278kts
26-Mar-20 18:21 37.497978 -121.715978 306 6647ft 266kts
26-Mar-20 18:22 37.534745 -121.793324 287 6043ft 259kts
26-Mar-20 18:23 37.543611 -121.880739 280 5165ft 236kts
26-Mar-20 18:24 37.562122 -121.954083 294 4505ft 202kts
26-Mar-20 18:25 37.582550 -122.015085 294 3558ft 181kts
26-Mar-20 18:26 37.604657 -122.070159 311 2887ft 175kts
26-Mar-20 18:27 37.634511 -122.113963 310 2020ft 156kts
26-Mar-20 18:28 37.661398 -122.154176 308 1226ft 137kts
26-Mar-20 18:29 37.684234 -122.188233 306 512ft 123kts
26-Mar-20 18:30 37.705172 -122.219763 307 14ft 102kts
26-Mar-20 18:31 37.711352 -122.226237 19 14ft 8kts
26-Mar-20 18:32 37.713111 -122.223868 48 14ft 15kts
26-Mar-20 18:33 37.711676 -122.220105 127 14ft 12kts
26-Mar-20 18:34 37.708815 -122.215350 77 14ft 17kts
26-Mar-20 18:35 37.709550 -122.213027 120 14ft 0kts
26-Mar-20 18:36 37.709550 -122.213027 120 14ft 0kts
26-Mar-20 18:37 37.709550 -122.213027 120 14ft 0kts
26-Mar-20 18:38 37.709550 -122.213027 120 14ft 0kts
26-Mar-20 18:39 37.709550 -122.213027 120 14ft 0kts

Navigation Log

Ident Type
Flight plan parsing failed, navigation log unavailable